createdAt,value
2018-09-29T00:00:11.828Z,5.77
2018-09-29T00:01:20.470Z,5.7
2018-09-29T00:02:29.361Z,5.62
2018-09-29T00:03:38.005Z,5.72
2018-09-29T00:04:46.640Z,5.67
2018-09-29T00:05:55.833Z,5.69
2018-09-29T00:07:04.460Z,5.67
2018-09-29T00:08:13.110Z,5.76
2018-09-29T00:09:21.744Z,5.61
2018-09-29T00:10:30.386Z,5.59
2018-09-29T00:11:39.014Z,5.59
2018-09-29T00:12:48.182Z,5.61
2018-09-29T00:13:56.824Z,5.58
2018-09-29T00:15:05.464Z,5.58
2018-09-29T00:16:14.370Z,5.52
2018-09-29T00:17:23.001Z,5.52
2018-09-29T00:18:31.641Z,5.59
2018-09-29T00:19:40.276Z,5.49
2018-09-29T00:20:48.924Z,5.52
2018-09-29T00:21:57.553Z,5.49
2018-09-29T00:23:06.196Z,5.49
2018-09-29T00:24:14.832Z,5.51
2018-09-29T00:25:23.481Z,5.51
2018-09-29T00:26:32.635Z,5.46
2018-09-29T00:27:41.805Z,5.41
2018-09-29T00:28:50.438Z,5.4
2018-09-29T00:29:59.087Z,5.49
2018-09-29T00:31:07.993Z,5.47
2018-09-29T00:32:16.886Z,5.41
2018-09-29T00:33:25.525Z,5.41
2018-09-29T00:34:34.161Z,5.41
2018-09-29T00:35:43.070Z,5.44
2018-09-29T00:36:51.702Z,5.37
2018-09-29T00:38:00.346Z,5.37
2018-09-29T00:39:09.503Z,5.34
2018-09-29T00:40:18.147Z,5.36
2018-09-29T00:41:26.783Z,5.33
2018-09-29T00:42:35.422Z,5.33
2018-09-29T00:43:44.051Z,5.4
2018-09-29T00:44:52.697Z,5.43
2018-09-29T00:46:01.333Z,5.36
2018-09-29T00:47:09.971Z,5.33
2018-09-29T00:48:18.602Z,5.33
2018-09-29T00:49:27.243Z,5.4
2018-09-29T00:50:35.879Z,5.33
2018-09-29T00:51:44.520Z,5.18
2018-09-29T00:52:53.421Z,5.28
2018-09-29T00:54:02.053Z,5.26
2018-09-29T00:55:10.691Z,5.16
2018-09-29T00:56:19.326Z,5.19
2018-09-29T00:57:27.968Z,5.16
2018-09-29T00:58:36.602Z,5.23
2018-09-29T00:59:45.245Z,5.23
2018-09-29T01:00:53.878Z,5.22
2018-09-29T01:02:02.518Z,5.13
2018-09-29T01:03:11.150Z,5.19
2018-09-29T01:04:20.058Z,5.15
2018-09-29T01:05:28.690Z,5.15
2018-09-29T01:06:37.333Z,5.13
2018-09-29T01:07:45.970Z,5.18
2018-09-29T01:08:54.609Z,5.12
2018-09-29T01:10:03.244Z,5.19
2018-09-29T01:11:11.879Z,5.13
2018-09-29T01:12:20.523Z,5.12
2018-09-29T01:13:29.161Z,5.18
2018-09-29T01:14:37.798Z,5.18
2018-09-29T01:15:46.430Z,5.12
2018-09-29T01:16:55.071Z,5.1
2018-09-29T01:18:03.979Z,5.02
2018-09-29T01:19:12.892Z,5.07
2018-09-29T01:20:21.509Z,5.08
2018-09-29T01:21:30.424Z,4.98
2018-09-29T01:22:39.064Z,4.98
2018-09-29T01:23:47.700Z,5.02
2018-09-29T01:24:56.338Z,5.01
2018-09-29T01:26:04.982Z,5.01
2018-09-29T01:27:13.619Z,4.97
2018-09-29T01:28:22.258Z,4.97
2018-09-29T01:29:30.900Z,4.98
2018-09-29T01:30:39.534Z,4.94
2018-09-29T01:31:48.170Z,5.02
2018-09-29T01:32:56.809Z,5.05
2018-09-29T01:34:05.458Z,5.01
2018-09-29T01:35:14.092Z,4.92
2018-09-29T01:36:22.729Z,4.92
2018-09-29T01:37:31.365Z,4.94
2018-09-29T01:38:40.276Z,4.92
2018-09-29T01:39:48.905Z,4.89
2018-09-29T01:40:57.546Z,4.87
2018-09-29T01:42:06.180Z,4.89
2018-09-29T01:43:15.357Z,4.9
2018-09-29T01:44:23.991Z,4.87
2018-09-29T01:45:32.633Z,4.98
2018-09-29T01:46:41.262Z,4.9
2018-09-29T01:47:50.169Z,4.9
2018-09-29T01:48:59.345Z,4.87
2018-09-29T01:50:07.974Z,4.87
2018-09-29T01:51:16.615Z,4.87
2018-09-29T01:52:25.244Z,4.89
2018-09-29T01:53:33.890Z,4.83
2018-09-29T01:54:42.525Z,4.94
2018-09-29T01:55:51.168Z,4.92
2018-09-29T01:56:59.794Z,4.83
2018-09-29T01:58:08.704Z,4.89
2018-09-29T01:59:17.343Z,4.86
2018-09-29T02:00:25.982Z,4.84
2018-09-29T02:01:34.609Z,4.87
2018-09-29T02:02:43.249Z,4.79
2018-09-29T02:03:52.155Z,4.75
2018-09-29T02:05:00.795Z,4.74
2018-09-29T02:06:09.441Z,4.76
2018-09-29T02:07:18.068Z,4.66
2018-09-29T02:08:26.709Z,4.82
2018-09-29T02:09:35.346Z,4.67
2018-09-29T02:10:44.254Z,4.68
2018-09-29T02:11:52.883Z,4.67
2018-09-29T02:13:01.530Z,4.67
2018-09-29T02:14:10.160Z,4.68
2018-09-29T02:15:18.805Z,4.7
2018-09-29T02:16:27.434Z,4.64
2018-09-29T02:17:36.073Z,4.66
2018-09-29T02:18:44.708Z,4.67
2018-09-29T02:19:53.359Z,4.6
2018-09-29T02:21:01.990Z,4.67
2018-09-29T02:22:10.626Z,4.61
2018-09-29T02:23:19.262Z,4.66
2018-09-29T02:24:27.896Z,4.64
2018-09-29T02:25:36.550Z,4.64
2018-09-29T02:26:45.178Z,4.64
2018-09-29T02:27:53.823Z,4.64
2018-09-29T02:29:02.504Z,4.53
2018-09-29T02:30:11.098Z,4.66
2018-09-29T02:31:19.731Z,4.67
2018-09-29T02:32:28.377Z,4.6
2018-09-29T02:33:37.012Z,4.63
2018-09-29T02:34:46.195Z,4.5
2018-09-29T02:35:54.839Z,4.46
2018-09-29T02:37:03.483Z,4.58
2018-09-29T02:38:12.110Z,4.57
2018-09-29T02:39:20.751Z,4.52
2018-09-29T02:40:29.665Z,4.48
2018-09-29T02:41:38.310Z,4.48
2018-09-29T02:42:47.214Z,4.5
2018-09-29T02:43:56.116Z,4.45
2018-09-29T02:45:04.757Z,4.48
2018-09-29T02:46:13.404Z,4.48
2018-09-29T02:47:22.034Z,4.4
2018-09-29T02:48:30.683Z,4.43
2018-09-29T02:49:39.846Z,4.4
2018-09-29T02:50:48.812Z,4.36
2018-09-29T02:51:57.440Z,4.38
2018-09-29T02:53:06.355Z,4.39
2018-09-29T02:54:14.988Z,4.4
2018-09-29T02:55:23.629Z,4.42
2018-09-29T02:56:32.261Z,4.34
2018-09-29T02:57:41.166Z,4.36
2018-09-29T02:58:49.818Z,4.36
2018-09-29T02:59:58.460Z,4.36
2018-09-29T03:01:07.103Z,4.38
2018-09-29T03:02:15.733Z,4.27
2018-09-29T03:03:24.377Z,4.34
2018-09-29T03:04:33.019Z,4.32
2018-09-29T03:05:41.665Z,4.32
2018-09-29T03:06:50.557Z,4.32
2018-09-29T03:07:59.478Z,4.3
2018-09-29T03:09:08.388Z,4.25
2018-09-29T03:10:17.295Z,4.27
2018-09-29T03:11:25.930Z,4.24
2018-09-29T03:12:34.564Z,4.3
2018-09-29T03:13:43.245Z,4.31
2018-09-29T03:14:51.844Z,4.27
2018-09-29T03:16:00.483Z,4.24
2018-09-29T03:17:09.117Z,4.25
2018-09-29T03:18:17.751Z,4.2
2018-09-29T03:19:26.485Z,4.3
2018-09-29T03:20:35.034Z,4.25
2018-09-29T03:21:43.670Z,4.27
2018-09-29T03:22:52.321Z,4.25
2018-09-29T03:24:01.209Z,4.27
2018-09-29T03:25:09.868Z,4.21
2018-09-29T03:26:18.505Z,4.16
2018-09-29T03:27:27.418Z,4.21
2018-09-29T03:28:36.324Z,4.13
2018-09-29T03:29:44.974Z,4.2
2018-09-29T03:30:53.872Z,4.2
2018-09-29T03:32:02.512Z,4.16
2018-09-29T03:33:11.139Z,4.16
2018-09-29T03:34:20.107Z,4.18
2018-09-29T03:35:29.014Z,4.12
2018-09-29T03:36:37.657Z,4.18
2018-09-29T03:37:46.299Z,4.13
2018-09-29T03:38:54.930Z,4.22
2018-09-29T03:40:03.837Z,4.14
2018-09-29T03:41:12.467Z,4.16
2018-09-29T03:42:21.119Z,4.14
2018-09-29T03:43:29.756Z,4.16
2018-09-29T03:44:38.387Z,4.16
2018-09-29T03:45:47.290Z,4.14
2018-09-29T03:46:56.202Z,4.2
2018-09-29T03:48:05.638Z,4.13
2018-09-29T03:49:14.548Z,4.07
2018-09-29T03:50:23.176Z,4.12
2018-09-29T03:51:31.822Z,4.1
2018-09-29T03:52:40.455Z,4.09
2018-09-29T03:53:49.371Z,4.14
2018-09-29T03:54:58.003Z,4.1
2018-09-29T03:56:06.923Z,4.09
2018-09-29T03:57:15.830Z,4.07
2018-09-29T03:58:24.726Z,4.09
2018-09-29T03:59:33.364Z,4.07
2018-09-29T04:00:42.268Z,4.03
2018-09-29T04:01:50.909Z,4.06
2018-09-29T04:02:59.814Z,4.06
2018-09-29T04:04:08.452Z,4.03
2018-09-29T04:05:17.095Z,4.06
2018-09-29T04:06:25.742Z,4.1
2018-09-29T04:07:34.642Z,4.02
2018-09-29T04:08:43.542Z,4.02
2018-09-29T04:09:52.176Z,4.03
2018-09-29T04:11:00.815Z,4.02
2018-09-29T04:12:09.711Z,3.96
2018-09-29T04:13:18.353Z,3.92
2018-09-29T04:14:26.991Z,4.02
2018-09-29T04:15:35.633Z,3.91
2018-09-29T04:16:44.272Z,3.92
2018-09-29T04:17:53.171Z,4.02
2018-09-29T04:19:01.813Z,3.92
2018-09-29T04:20:10.447Z,3.88
2018-09-29T04:21:19.345Z,3.94
2018-09-29T04:22:27.980Z,3.91
2018-09-29T04:23:36.883Z,3.94
2018-09-29T04:24:45.779Z,3.96
2018-09-29T04:25:54.418Z,3.99
2018-09-29T04:27:03.052Z,3.99
2018-09-29T04:28:11.955Z,3.99
2018-09-29T04:29:20.594Z,3.95
2018-09-29T04:30:29.229Z,3.89
2018-09-29T04:31:37.863Z,3.94
2018-09-29T04:32:46.500Z,3.94
2018-09-29T04:33:55.142Z,3.95
2018-09-29T04:35:03.780Z,3.92
2018-09-29T04:36:12.416Z,3.88
2018-09-29T04:37:21.046Z,3.94
2018-09-29T04:38:29.689Z,3.86
2018-09-29T04:39:38.583Z,3.89
2018-09-29T04:40:47.217Z,3.89
2018-09-29T04:41:55.858Z,3.89
2018-09-29T04:43:04.496Z,3.84
2018-09-29T04:44:13.126Z,3.89
2018-09-29T04:45:21.765Z,3.84
2018-09-29T04:46:30.409Z,3.84
2018-09-29T04:47:39.045Z,3.81
2018-09-29T04:48:47.675Z,3.74
2018-09-29T04:49:56.308Z,3.81
2018-09-29T04:51:04.945Z,3.76
2018-09-29T04:52:13.850Z,3.71
2018-09-29T04:53:22.485Z,3.77
2018-09-29T04:54:31.129Z,3.66
2018-09-29T04:55:40.021Z,3.73
2018-09-29T04:56:48.664Z,3.73
2018-09-29T04:57:57.296Z,3.78
2018-09-29T04:59:05.945Z,3.77
2018-09-29T05:00:14.569Z,3.61
2018-09-29T05:01:23.214Z,3.67
2018-09-29T05:02:32.116Z,3.67
2018-09-29T05:03:40.756Z,3.68
2018-09-29T05:04:49.381Z,3.63
2018-09-29T05:05:58.282Z,3.7
2018-09-29T05:07:06.928Z,3.71
2018-09-29T05:08:15.564Z,3.63
2018-09-29T05:09:24.203Z,3.66
2018-09-29T05:10:32.835Z,3.77
2018-09-29T05:11:41.470Z,3.67
2018-09-29T05:12:50.102Z,3.64
2018-09-29T05:13:59.054Z,3.68
2018-09-29T05:15:07.627Z,3.64
2018-09-29T05:16:16.268Z,3.59
2018-09-29T05:17:24.905Z,3.63
2018-09-29T05:18:33.543Z,3.64
2018-09-29T05:19:42.170Z,3.53
2018-09-29T05:20:50.810Z,3.64
2018-09-29T05:21:59.705Z,3.64
2018-09-29T05:23:08.412Z,3.68
2018-09-29T05:24:17.590Z,3.7
2018-09-29T05:25:26.485Z,3.63
2018-09-29T05:26:35.117Z,3.68
2018-09-29T05:27:43.758Z,3.59
2018-09-29T05:28:52.665Z,3.59
2018-09-29T05:30:01.301Z,3.71
2018-09-29T05:31:10.213Z,3.67
2018-09-29T05:32:19.104Z,3.67
2018-09-29T05:33:28.013Z,3.66
2018-09-29T05:34:36.645Z,3.56
2018-09-29T05:35:45.285Z,3.67
2018-09-29T05:36:53.913Z,3.64
2018-09-29T05:38:02.559Z,3.61
2018-09-29T05:39:11.195Z,3.71
2018-09-29T05:40:19.831Z,3.66
2018-09-29T05:41:28.466Z,3.63
2018-09-29T05:42:37.105Z,3.7
2018-09-29T05:43:45.788Z,3.77
2018-09-29T05:44:54.380Z,3.71
2018-09-29T05:46:03.283Z,3.67
2018-09-29T05:47:11.913Z,3.7
2018-09-29T05:48:20.583Z,3.7
2018-09-29T05:49:29.188Z,3.78
2018-09-29T05:50:37.829Z,3.74
2018-09-29T05:51:46.460Z,3.66
2018-09-29T05:52:55.098Z,3.74
2018-09-29T05:54:03.791Z,3.71
2018-09-29T05:55:12.375Z,3.71
2018-09-29T05:56:21.006Z,3.77
2018-09-29T05:57:29.645Z,3.71
2018-09-29T05:58:38.277Z,3.88
2018-09-29T05:59:46.919Z,3.85
2018-09-29T06:00:55.548Z,3.91
2018-09-29T06:02:04.185Z,3.86
2018-09-29T06:03:13.091Z,3.94
2018-09-29T06:04:21.990Z,3.92
2018-09-29T06:05:30.694Z,4.06
2018-09-29T06:06:39.265Z,3.99
2018-09-29T06:07:47.905Z,4.07
2018-09-29T06:08:56.532Z,4.07
2018-09-29T06:10:05.186Z,4.09
2018-09-29T06:11:13.823Z,4.09
2018-09-29T06:12:22.458Z,4.14
2018-09-29T06:13:31.356Z,4.21
2018-09-29T06:14:39.998Z,4.13
2018-09-29T06:15:48.633Z,4.14
2018-09-29T06:16:57.271Z,4.12
2018-09-29T06:18:05.907Z,4.16
2018-09-29T06:19:14.545Z,4.3
2018-09-29T06:20:23.189Z,4.22
2018-09-29T06:21:32.088Z,4.28
2018-09-29T06:22:40.995Z,4.34
2018-09-29T06:23:49.628Z,4.28
2018-09-29T06:24:58.266Z,4.34
2018-09-29T06:26:06.902Z,4.4
2018-09-29T06:27:15.542Z,4.36
2018-09-29T06:28:24.173Z,4.4
2018-09-29T06:29:32.808Z,4.46
2018-09-29T06:30:41.448Z,4.49
2018-09-29T06:31:50.354Z,4.52
2018-09-29T06:32:58.990Z,4.5
2018-09-29T06:34:07.653Z,4.56
2018-09-29T06:35:16.527Z,4.63
2018-09-29T06:36:25.169Z,4.68
2018-09-29T06:37:33.805Z,4.67
2018-09-29T06:38:42.445Z,4.64
2018-09-29T06:39:51.083Z,4.7
2018-09-29T06:40:59.723Z,4.86
2018-09-29T06:42:08.355Z,4.76
2018-09-29T06:43:17.254Z,4.75
2018-09-29T06:44:25.888Z,4.84
2018-09-29T06:45:34.530Z,4.83
2018-09-29T06:46:43.164Z,4.84
2018-09-29T06:47:52.109Z,4.89
2018-09-29T06:49:00.706Z,4.9
2018-09-29T06:50:09.607Z,4.87
2018-09-29T06:51:18.243Z,4.95
2018-09-29T06:52:26.881Z,5
2018-09-29T06:53:35.783Z,5.05
2018-09-29T06:54:44.425Z,5.07
2018-09-29T06:55:53.067Z,5.16
2018-09-29T06:57:01.700Z,5.15
2018-09-29T06:58:10.335Z,5.16
2018-09-29T06:59:18.971Z,5.1
2018-09-29T07:00:27.611Z,5.13
2018-09-29T07:01:36.250Z,5.2
2018-09-29T07:02:44.886Z,5.13
2018-09-29T07:03:53.519Z,5.33
2018-09-29T07:05:02.160Z,5.28
2018-09-29T07:06:10.924Z,5.4
2018-09-29T07:07:19.437Z,5.43
2018-09-29T07:08:28.072Z,5.44
2018-09-29T07:09:36.713Z,5.4
2018-09-29T07:10:45.352Z,5.46
2018-09-29T07:11:53.993Z,5.54
2018-09-29T07:13:02.710Z,5.62
2018-09-29T07:14:11.270Z,5.67
2018-09-29T07:15:19.903Z,5.67
2018-09-29T07:16:28.539Z,5.72
2018-09-29T07:17:37.179Z,5.74
2018-09-29T07:18:45.810Z,5.8
2018-09-29T07:19:54.447Z,5.9
2018-09-29T07:21:03.084Z,5.97
2018-09-29T07:22:11.727Z,5.97
2018-09-29T07:23:20.369Z,6.05
2018-09-29T07:24:28.998Z,6.09
2018-09-29T07:25:37.673Z,6.17
2018-09-29T07:26:46.278Z,6.31
2018-09-29T07:27:54.912Z,6.35
2018-09-29T07:29:03.554Z,6.36
2018-09-29T07:30:12.455Z,6.41
2018-09-29T07:31:21.135Z,6.38
2018-09-29T07:32:29.738Z,6.35
2018-09-29T07:33:38.378Z,6.44
2018-09-29T07:34:47.277Z,6.53
2018-09-29T07:35:55.912Z,6.49
2018-09-29T07:37:04.819Z,6.56
2018-09-29T07:38:13.454Z,6.56
2018-09-29T07:39:22.096Z,6.59
2018-09-29T07:40:30.725Z,6.68
2018-09-29T07:41:39.373Z,6.62
2018-09-29T07:42:48.007Z,6.7
2018-09-29T07:43:56.653Z,6.77
2018-09-29T07:45:05.282Z,6.86
2018-09-29T07:46:13.929Z,6.95
2018-09-29T07:47:22.564Z,6.97
2018-09-29T07:48:31.206Z,7.04
2018-09-29T07:49:39.839Z,7.1
2018-09-29T07:50:48.480Z,7.18
2018-09-29T07:51:57.121Z,7.21
2018-09-29T07:53:05.768Z,7.32
2018-09-29T07:54:14.405Z,7.36
2018-09-29T07:55:23.035Z,7.32
2018-09-29T07:56:31.681Z,7.43
2018-09-29T07:57:40.315Z,7.41
2018-09-29T07:58:49.247Z,7.55
2018-09-29T07:59:57.880Z,7.67
2018-09-29T08:01:06.522Z,7.77
2018-09-29T08:02:15.419Z,7.77
2018-09-29T08:03:24.068Z,7.72
2018-09-29T08:04:32.693Z,7.87
2018-09-29T08:05:41.336Z,7.98
2018-09-29T08:06:49.972Z,8.03
2018-09-29T08:07:58.619Z,7.99
2018-09-29T08:09:07.255Z,8.14
2018-09-29T08:10:15.890Z,8.26
2018-09-29T08:11:24.526Z,8.16
2018-09-29T08:12:33.244Z,8.34
2018-09-29T08:13:41.818Z,8.35
2018-09-29T08:14:50.450Z,8.45
2018-09-29T08:15:59.095Z,8.49
2018-09-29T08:17:07.725Z,8.53
2018-09-29T08:18:16.641Z,8.6
2018-09-29T08:19:25.277Z,8.69
2018-09-29T08:20:33.921Z,8.71
2018-09-29T08:21:42.551Z,8.93
2018-09-29T08:22:51.200Z,9
2018-09-29T08:23:59.837Z,8.99
2018-09-29T08:25:08.736Z,9.13
2018-09-29T08:26:17.366Z,9.18
2018-09-29T08:27:26.278Z,9.16
2018-09-29T08:28:34.919Z,9.36
2018-09-29T08:29:43.825Z,9.3
2018-09-29T08:30:52.467Z,9.31
2018-09-29T08:32:01.626Z,9.39
2018-09-29T08:33:10.268Z,9.47
2018-09-29T08:34:18.906Z,9.47
2018-09-29T08:35:27.819Z,9.47
2018-09-29T08:36:36.452Z,9.58
2018-09-29T08:37:45.098Z,9.66
2018-09-29T08:38:53.734Z,9.72
2018-09-29T08:40:02.379Z,9.84
2018-09-29T08:41:11.015Z,9.82
2018-09-29T08:42:19.656Z,9.87
2018-09-29T08:43:28.295Z,9.92
2018-09-29T08:44:36.940Z,10.02
2018-09-29T08:45:45.579Z,9.99
2018-09-29T08:46:54.746Z,10.03
2018-09-29T08:48:03.384Z,10.1
2018-09-29T08:49:12.288Z,10.09
2018-09-29T08:50:20.932Z,10.2
2018-09-29T08:51:29.573Z,10.2
2018-09-29T08:52:38.484Z,10.28
2018-09-29T08:53:47.180Z,10.28
2018-09-29T08:54:55.772Z,10.34
2018-09-29T08:56:04.682Z,10.31
2018-09-29T08:57:13.325Z,10.38
2018-09-29T08:58:21.962Z,10.43
2018-09-29T08:59:30.613Z,10.51
2018-09-29T09:00:39.253Z,10.53
2018-09-29T09:01:48.163Z,10.62
2018-09-29T09:02:56.799Z,10.57
2018-09-29T09:04:05.507Z,10.68
2018-09-29T09:05:14.080Z,10.76
2018-09-29T09:06:22.723Z,10.69
2018-09-29T09:07:31.640Z,10.83
2018-09-29T09:08:40.289Z,10.79
2018-09-29T09:09:48.920Z,10.92
2018-09-29T09:10:57.833Z,10.98
2018-09-29T09:12:06.478Z,10.97
2018-09-29T09:13:15.381Z,10.98
2018-09-29T09:14:24.026Z,11.04
2018-09-29T09:15:32.928Z,11.1
2018-09-29T09:16:41.582Z,11.19
2018-09-29T09:17:50.208Z,11.3
2018-09-29T09:18:58.853Z,11.3
2018-09-29T09:20:07.760Z,11.31
2018-09-29T09:21:16.408Z,11.44
2018-09-29T09:22:25.048Z,11.38
2018-09-29T09:23:33.694Z,11.45
2018-09-29T09:24:42.326Z,11.52
2018-09-29T09:25:50.961Z,11.53
2018-09-29T09:26:59.607Z,11.51
2018-09-29T09:28:08.253Z,11.6
2018-09-29T09:29:16.890Z,11.65
2018-09-29T09:30:25.530Z,11.71
2018-09-29T09:31:34.174Z,11.71
2018-09-29T09:32:42.816Z,11.71
2018-09-29T09:33:51.461Z,11.73
2018-09-29T09:35:00.093Z,11.77
2018-09-29T09:36:08.742Z,11.78
2018-09-29T09:37:17.380Z,11.91
2018-09-29T09:38:26.023Z,11.88
2018-09-29T09:39:34.659Z,11.86
2018-09-29T09:40:43.300Z,11.93
2018-09-29T09:41:52.211Z,11.85
2018-09-29T09:43:00.852Z,11.93
2018-09-29T09:44:09.495Z,11.91
2018-09-29T09:45:18.138Z,11.99
2018-09-29T09:46:27.045Z,12.02
2018-09-29T09:47:35.682Z,12.02
2018-09-29T09:48:44.591Z,12.02
2018-09-29T09:49:53.497Z,11.95
2018-09-29T09:51:02.143Z,12.05
2018-09-29T09:52:10.780Z,12.07
2018-09-29T09:53:19.429Z,12.07
2018-09-29T09:54:28.327Z,11.95
2018-09-29T09:55:37.240Z,12.12
2018-09-29T09:56:46.411Z,12.12
2018-09-29T09:57:55.054Z,12.18
2018-09-29T09:59:03.693Z,12.18
2018-09-29T10:00:12.592Z,12.2
2018-09-29T10:01:21.246Z,12.15
2018-09-29T10:02:29.872Z,12.28
2018-09-29T10:03:38.522Z,12.28
2018-09-29T10:04:47.423Z,12.29
2018-09-29T10:05:56.330Z,12.37
2018-09-29T10:07:04.964Z,12.39
2018-09-29T10:08:13.877Z,12.43
2018-09-29T10:09:22.517Z,12.35
2018-09-29T10:10:31.162Z,12.39
2018-09-29T10:11:39.795Z,12.47
2018-09-29T10:12:48.813Z,12.43
2018-09-29T10:13:57.455Z,12.5
2018-09-29T10:15:06.101Z,12.65
2018-09-29T10:16:14.733Z,12.58
2018-09-29T10:17:23.672Z,12.57
2018-09-29T10:18:32.302Z,12.61
2018-09-29T10:19:40.946Z,12.65
2018-09-29T10:20:49.856Z,12.65
2018-09-29T10:21:58.489Z,12.69
2018-09-29T10:23:07.135Z,12.76
2018-09-29T10:24:15.773Z,12.75
2018-09-29T10:25:24.423Z,12.69
2018-09-29T10:26:33.055Z,12.68
2018-09-29T10:27:41.766Z,12.72
2018-09-29T10:28:50.343Z,12.75
2018-09-29T10:29:59.004Z,12.78
2018-09-29T10:31:07.630Z,12.78
2018-09-29T10:32:16.290Z,12.75
2018-09-29T10:33:24.941Z,12.7
2018-09-29T10:34:33.576Z,12.7
2018-09-29T10:35:42.222Z,12.8
2018-09-29T10:36:50.868Z,12.76
2018-09-29T10:37:59.513Z,12.78
2018-09-29T10:39:08.159Z,12.9
2018-09-29T10:40:16.794Z,12.88
2018-09-29T10:41:25.445Z,12.94
2018-09-29T10:42:34.086Z,12.99
2018-09-29T10:43:42.733Z,13.06
2018-09-29T10:44:51.364Z,13.05
2018-09-29T10:46:00.011Z,13.01
2018-09-29T10:47:08.648Z,13.09
2018-09-29T10:48:17.302Z,13.03
2018-09-29T10:49:25.935Z,13.12
2018-09-29T10:50:34.851Z,13.12
2018-09-29T10:51:43.759Z,13.19
2018-09-29T10:52:52.461Z,13.26
2018-09-29T10:54:01.322Z,13.31
2018-09-29T10:55:09.965Z,13.36
2018-09-29T10:56:18.604Z,13.39
2018-09-29T10:57:27.249Z,13.43
2018-09-29T10:58:36.176Z,13.4
2018-09-29T10:59:44.804Z,13.46
2018-09-29T11:00:53.724Z,13.49
2018-09-29T11:02:02.357Z,13.47
2018-09-29T11:03:11.013Z,13.55
2018-09-29T11:04:19.649Z,13.58
2018-09-29T11:05:28.298Z,13.67
2018-09-29T11:06:36.930Z,13.75
2018-09-29T11:07:45.847Z,13.75
2018-09-29T11:08:54.492Z,13.71
2018-09-29T11:10:03.140Z,13.79
2018-09-29T11:11:11.767Z,13.65
2018-09-29T11:12:20.416Z,13.55
2018-09-29T11:13:29.064Z,13.64
2018-09-29T11:14:37.973Z,13.58
2018-09-29T11:15:46.616Z,13.61
2018-09-29T11:16:55.255Z,13.54
2018-09-29T11:18:03.902Z,13.55
2018-09-29T11:19:12.540Z,13.57
2018-09-29T11:20:21.191Z,13.55
2018-09-29T11:21:29.828Z,13.7
2018-09-29T11:22:38.477Z,13.57
2018-09-29T11:23:47.118Z,13.79
2018-09-29T11:24:55.772Z,13.65
2018-09-29T11:26:04.669Z,13.7
2018-09-29T11:27:13.315Z,13.78
2018-09-29T11:28:22.025Z,13.83
2018-09-29T11:29:30.608Z,13.86
2018-09-29T11:30:39.251Z,13.89
2018-09-29T11:31:48.148Z,14
2018-09-29T11:32:57.062Z,14.11
2018-09-29T11:34:05.711Z,14.13
2018-09-29T11:35:14.352Z,14.2
2018-09-29T11:36:22.996Z,14.26
2018-09-29T11:37:31.638Z,14.19
2018-09-29T11:38:40.279Z,14.23
2018-09-29T11:39:48.928Z,14.19
2018-09-29T11:40:57.571Z,14.26
2018-09-29T11:42:06.214Z,14.3
2018-09-29T11:43:14.849Z,14.36
2018-09-29T11:44:23.497Z,14.36
2018-09-29T11:45:32.141Z,14.38
2018-09-29T11:46:40.788Z,14.36
2018-09-29T11:47:49.427Z,14.26
2018-09-29T11:48:58.072Z,14.33
2018-09-29T11:50:06.986Z,14.3
2018-09-29T11:51:15.632Z,14.31
2018-09-29T11:52:24.282Z,14.26
2018-09-29T11:53:32.921Z,14.3
2018-09-29T11:54:41.566Z,14.28
2018-09-29T11:55:50.212Z,14.28
2018-09-29T11:56:58.863Z,14.23
2018-09-29T11:58:07.504Z,14.25
2018-09-29T11:59:16.411Z,14.22
2018-09-29T12:00:25.057Z,14.13
2018-09-29T12:01:33.704Z,14.23
2018-09-29T12:02:42.342Z,14.22
2018-09-29T12:03:50.988Z,14.23
2018-09-29T12:04:59.636Z,14.28
2018-09-29T12:06:08.294Z,14.23
2018-09-29T12:07:17.040Z,14.26
2018-09-29T12:08:26.108Z,14.34
2018-09-29T12:09:34.748Z,14.3
2018-09-29T12:10:43.390Z,14.33
2018-09-29T12:11:52.039Z,14.23
2018-09-29T12:13:00.685Z,14.31
2018-09-29T12:14:09.327Z,14.26
2018-09-29T12:15:17.967Z,14.33
2018-09-29T12:16:26.615Z,14.31
2018-09-29T12:17:35.530Z,14.37
2018-09-29T12:18:44.175Z,14.44
2018-09-29T12:19:52.815Z,14.44
2018-09-29T12:21:01.492Z,14.48
2018-09-29T12:22:10.130Z,14.51
2018-09-29T12:23:18.752Z,14.49
2018-09-29T12:24:27.395Z,14.62
2018-09-29T12:25:36.037Z,14.53
2018-09-29T12:26:44.682Z,14.55
2018-09-29T12:27:53.329Z,14.62
2018-09-29T12:29:01.977Z,14.63
2018-09-29T12:30:10.617Z,14.63
2018-09-29T12:31:19.261Z,14.61
2018-09-29T12:32:27.910Z,14.56
2018-09-29T12:33:36.547Z,14.55
2018-09-29T12:34:45.199Z,14.49
2018-09-29T12:35:53.841Z,14.43
2018-09-29T12:37:02.524Z,14.38
2018-09-29T12:38:11.126Z,14.28
2018-09-29T12:39:20.040Z,14.26
2018-09-29T12:40:28.682Z,14.34
2018-09-29T12:41:37.333Z,14.38
2018-09-29T12:42:45.967Z,14.28
2018-09-29T12:43:54.893Z,14.4
2018-09-29T12:45:03.536Z,14.36
2018-09-29T12:46:12.184Z,14.43
2018-09-29T12:47:21.366Z,14.43
2018-09-29T12:48:30.007Z,14.44
2018-09-29T12:49:38.655Z,14.44
2018-09-29T12:50:47.295Z,14.52
2018-09-29T12:51:55.965Z,14.48
2018-09-29T12:53:04.964Z,14.49
2018-09-29T12:54:13.612Z,14.49
2018-09-29T12:55:22.251Z,14.59
2018-09-29T12:56:31.170Z,14.58
2018-09-29T12:57:39.804Z,14.73
2018-09-29T12:58:48.456Z,14.68
2018-09-29T12:59:57.093Z,14.68
2018-09-29T13:01:06.022Z,14.68
2018-09-29T13:02:14.929Z,14.7
2018-09-29T13:03:23.570Z,14.7
2018-09-29T13:04:32.213Z,14.82
2018-09-29T13:05:40.856Z,14.9
2018-09-29T13:06:49.771Z,14.89
2018-09-29T13:07:58.415Z,14.89
2018-09-29T13:09:07.062Z,14.9
2018-09-29T13:10:15.701Z,14.85
2018-09-29T13:11:24.351Z,14.9
2018-09-29T13:12:32.990Z,14.92
2018-09-29T13:13:41.642Z,14.81
2018-09-29T13:14:50.285Z,14.87
2018-09-29T13:15:58.929Z,14.78
2018-09-29T13:17:07.572Z,14.79
2018-09-29T13:18:16.218Z,14.77
2018-09-29T13:19:24.854Z,14.9
2018-09-29T13:20:33.502Z,14.81
2018-09-29T13:21:42.152Z,14.77
2018-09-29T13:22:50.853Z,14.74
2018-09-29T13:23:59.445Z,14.71
2018-09-29T13:25:08.349Z,14.77
2018-09-29T13:26:17.268Z,14.85
2018-09-29T13:27:25.908Z,14.78
2018-09-29T13:28:34.563Z,14.77
2018-09-29T13:29:43.258Z,14.68
2018-09-29T13:30:51.845Z,14.61
2018-09-29T13:32:00.941Z,14.67
2018-09-29T13:33:09.490Z,14.68
2018-09-29T13:34:18.130Z,14.58
2018-09-29T13:35:26.775Z,14.58
2018-09-29T13:36:35.417Z,14.63
2018-09-29T13:37:44.325Z,14.56
2018-09-29T13:38:52.966Z,14.49
2018-09-29T13:40:01.611Z,14.45
2018-09-29T13:41:10.252Z,14.45
2018-09-29T13:42:18.889Z,14.45
2018-09-29T13:43:27.537Z,14.37
2018-09-29T13:44:36.181Z,14.33
2018-09-29T13:45:45.095Z,14.37
2018-09-29T13:46:53.728Z,14.33
2018-09-29T13:48:02.649Z,14.31
2018-09-29T13:49:11.292Z,14.28
2018-09-29T13:50:19.940Z,14.3
2018-09-29T13:51:28.580Z,14.28
2018-09-29T13:52:37.229Z,14.38
2018-09-29T13:53:45.989Z,14.26
2018-09-29T13:54:54.515Z,14.36
2018-09-29T13:56:03.422Z,14.38
2018-09-29T13:57:12.604Z,14.37
2018-09-29T13:58:21.248Z,14.36
2018-09-29T13:59:29.898Z,14.41
2018-09-29T14:00:38.808Z,14.37
2018-09-29T14:01:47.451Z,14.37
2018-09-29T14:02:56.104Z,14.36
2018-09-29T14:04:04.741Z,14.36
2018-09-29T14:05:13.390Z,14.26
2018-09-29T14:06:22.029Z,14.34
2018-09-29T14:07:30.671Z,14.36
2018-09-29T14:08:39.359Z,14.44
2018-09-29T14:09:48.552Z,14.4
2018-09-29T14:10:57.188Z,14.34
2018-09-29T14:12:05.834Z,14.23
2018-09-29T14:13:14.477Z,14.3
2018-09-29T14:14:23.125Z,14.19
2018-09-29T14:15:31.769Z,14.25
2018-09-29T14:16:40.682Z,14.23
2018-09-29T14:17:49.325Z,14.23
2018-09-29T14:18:57.967Z,14.26
2018-09-29T14:20:06.617Z,14.3
2018-09-29T14:21:15.523Z,14.31
2018-09-29T14:22:24.168Z,14.34
2018-09-29T14:23:32.807Z,14.31
2018-09-29T14:24:41.455Z,14.23
2018-09-29T14:25:50.101Z,14.2
2018-09-29T14:26:58.744Z,14.18
2018-09-29T14:28:07.391Z,14.22
2018-09-29T14:29:16.028Z,14.04
2018-09-29T14:30:24.671Z,14.03
2018-09-29T14:31:33.311Z,14
2018-09-29T14:32:41.960Z,14
2018-09-29T14:33:50.603Z,13.94
2018-09-29T14:34:59.245Z,13.93
2018-09-29T14:36:07.887Z,13.93
2018-09-29T14:37:16.795Z,13.91
2018-09-29T14:38:25.712Z,13.87
2018-09-29T14:39:34.355Z,13.87
2018-09-29T14:40:43.000Z,13.87
2018-09-29T14:41:51.683Z,13.97
2018-09-29T14:43:00.286Z,13.85
2018-09-29T14:44:08.931Z,13.85
2018-09-29T14:45:17.574Z,13.91
2018-09-29T14:46:26.484Z,13.86
2018-09-29T14:47:35.134Z,13.86
2018-09-29T14:48:43.781Z,13.93
2018-09-29T14:49:52.694Z,13.95
2018-09-29T14:51:01.333Z,13.87
2018-09-29T14:52:10.025Z,13.91
2018-09-29T14:53:18.625Z,13.83
2018-09-29T14:54:27.270Z,13.93
2018-09-29T14:55:37.968Z,13.91
2018-09-29T14:56:46.867Z,13.87
2018-09-29T14:57:55.873Z,13.94
2018-09-29T14:59:04.504Z,13.86
2018-09-29T15:00:13.157Z,13.91
2018-09-29T15:01:21.797Z,13.97
2018-09-29T15:02:30.441Z,13.95
2018-09-29T15:03:39.083Z,13.98
2018-09-29T15:04:47.730Z,13.97